Hauptseite
METAR-TAF:

METAR-TAF

Flughäfen :

Maastricht Aachen, Niederlande

Maastricht Aachen Airport

Breite: 50-55N, Länge: 005-47E, Höhe: 114 m

Beobachtung

Neuester Wetterbericht von vor 13 Minuten, um 11:25 UTC
Wind 19 kt aus Ost/Nordost
Temperatur 13°C
Luftfeuchtigkeit 51%
Luftdruck 1027 hPa
Sichtweite 10 km oder mehr

METAR: EHBK 251125Z AUTO 06019KT 9999 NCD 13/03 Q1027 NOSIG

Zeit: 12:38 (11:38 UTC)

Prognose

Neuester Wetterbericht von vor 26 Minuten, um 11:12 UTC
Gültige Prognose vom 25 um 12 UTC bis 26 um 18 UTC
Wind 14 kt aus Nordost
Sichtweite 10 km oder mehr
keine Wolken unter 1500 m und keine Kumulonimbus oder Gewitterwolken
Übergehend zu
vom 26 um 00 UTC bis 26 um 03 UTC
Wind 8 kt aus Ost/Nordost
Wahrscheinlichkeit 30%
vom 26 um 02 UTC bis 26 um 08 UTC
Sichtweite: 4000 m
feuchter Dunst, Flacher Nebel

TAF: EHBK 251112Z 2512/2618 04014KT CAVOK BECMG 2600/2603 07008KT PROB30 2602/2608 4000 BR MIFG

Wetterbeobachtungen und Prognosen von mehr als 4000 Flughäfen (METAR und TAF Bericht).

Die verfügbaren Stationen werden durch gelbe und rote Markierungen auf der Karte dargestellt.

Führen Sie die Maus auf sie, um den Namen der Station zu sehen.

Darauf klicken, um die Beobachtung von Wetterbeobachtungen und Prognosen zu sehen.

Um die Karte zu ändern : klicken Sie auf den grünen Tasten mit einem schwarzen Kreuz Zum Vergrößern, auf den grünen Button mit einem Gedankenstrich zu verkleinern, oder auf die grünen Pfeile für benachbarte Karten.


METAR-TAF: